sensor_id;sensor_type;location;lat;lon;timestamp;P1;durP1;ratioP1;P2;durP2;ratioP2
23142;SDS011;11740;51.168;4.112;2022-07-23T00:00:19;4.18;;;2.92;;
23142;SDS011;11740;51.168;4.112;2022-07-23T00:02:47;3.05;;;2.70;;
23142;SDS011;11740;51.168;4.112;2022-07-23T00:05:14;5.18;;;2.97;;
23142;SDS011;11740;51.168;4.112;2022-07-23T00:07:41;6.53;;;3.63;;
23142;SDS011;11740;51.168;4.112;2022-07-23T00:10:08;4.00;;;2.90;;
23142;SDS011;11740;51.168;4.112;2022-07-23T00:12:35;4.25;;;3.17;;
23142;SDS011;11740;51.168;4.112;2022-07-23T00:15:16;4.35;;;3.28;;
23142;SDS011;11740;51.168;4.112;2022-07-23T00:17:43;4.43;;;3.28;;
23142;SDS011;11740;51.168;4.112;2022-07-23T00:20:10;5.63;;;2.85;;
23142;SDS011;11740;51.168;4.112;2022-07-23T00:22:45;5.18;;;3.38;;
23142;SDS011;11740;51.168;4.112;2022-07-23T00:25:17;4.13;;;2.70;;
23142;SDS011;11740;51.168;4.112;2022-07-23T00:27:55;5.20;;;3.25;;
23142;SDS011;11740;51.168;4.112;2022-07-23T00:30:23;3.47;;;2.83;;
23142;SDS011;11740;51.168;4.112;2022-07-23T00:32:54;3.97;;;2.90;;
23142;SDS011;11740;51.168;4.112;2022-07-23T00:35:25;5.22;;;3.33;;
23142;SDS011;11740;51.168;4.112;2022-07-23T00:37:55;4.15;;;3.05;;
23142;SDS011;11740;51.168;4.112;2022-07-23T00:40:24;3.97;;;2.90;;
23142;SDS011;11740;51.168;4.112;2022-07-23T00:42:53;3.05;;;2.75;;
23142;SDS011;11740;51.168;4.112;2022-07-23T00:45:20;3.20;;;2.90;;
23142;SDS011;11740;51.168;4.112;2022-07-23T00:47:47;4.07;;;3.25;;
23142;SDS011;11740;51.168;4.112;2022-07-23T00:50:14;4.20;;;2.65;;
23142;SDS011;11740;51.168;4.112;2022-07-23T00:52:41;3.70;;;3.03;;
23142;SDS011;11740;51.168;4.112;2022-07-23T00:55:10;3.05;;;2.75;;
23142;SDS011;11740;51.168;4.112;2022-07-23T00:57:38;4.45;;;2.80;;
23142;SDS011;11740;51.168;4.112;2022-07-23T01:00:07;4.68;;;2.85;;
23142;SDS011;11740;51.168;4.112;2022-07-23T01:02:38;4.10;;;2.90;;
23142;SDS011;11740;51.168;4.112;2022-07-23T01:05:06;4.60;;;3.17;;
23142;SDS011;11740;51.168;4.112;2022-07-23T01:07:35;3.28;;;2.97;;
23142;SDS011;11740;51.168;4.112;2022-07-23T01:10:06;4.25;;;2.92;;
23142;SDS011;11740;51.168;4.112;2022-07-23T01:12:54;8.65;;;2.97;;
23142;SDS011;11740;51.168;4.112;2022-07-23T01:15:21;4.97;;;2.95;;
23142;SDS011;11740;51.168;4.112;2022-07-23T01:17:48;3.70;;;2.70;;
23142;SDS011;11740;51.168;4.112;2022-07-23T01:20:17;4.05;;;2.70;;
23142;SDS011;11740;51.168;4.112;2022-07-23T01:22:46;3.78;;;3.38;;
23142;SDS011;11740;51.168;4.112;2022-07-23T01:25:14;4.47;;;2.80;;
23142;SDS011;11740;51.168;4.112;2022-07-23T01:27:41;4.60;;;3.22;;
23142;SDS011;11740;51.168;4.112;2022-07-23T01:30:09;4.93;;;2.95;;
23142;SDS011;11740;51.168;4.112;2022-07-23T01:32:36;4.32;;;2.90;;
23142;SDS011;11740;51.168;4.112;2022-07-23T01:35:04;3.78;;;3.00;;
23142;SDS011;11740;51.168;4.112;2022-07-23T01:37:33;3.83;;;3.20;;
23142;SDS011;11740;51.168;4.112;2022-07-23T01:40:06;3.30;;;3.00;;
23142;SDS011;11740;51.168;4.112;2022-07-23T01:42:33;3.75;;;2.60;;
23142;SDS011;11740;51.168;4.112;2022-07-23T01:45:00;3.85;;;2.92;;
23142;SDS011;11740;51.168;4.112;2022-07-23T01:47:27;3.10;;;2.75;;
23142;SDS011;11740;51.168;4.112;2022-07-23T01:49:55;4.35;;;2.80;;
23142;SDS011;11740;51.168;4.112;2022-07-23T01:52:22;4.25;;;2.67;;
23142;SDS011;11740;51.168;4.112;2022-07-23T01:54:49;3.28;;;2.97;;
23142;SDS011;11740;51.168;4.112;2022-07-23T01:57:16;3.65;;;2.97;;
23142;SDS011;11740;51.168;4.112;2022-07-23T01:59:43;4.72;;;3.00;;
23142;SDS011;11740;51.168;4.112;2022-07-23T02:02:10;3.33;;;2.75;;
23142;SDS011;11740;51.168;4.112;2022-07-23T02:04:37;2.90;;;2.65;;
23142;SDS011;11740;51.168;4.112;2022-07-23T02:07:05;2.75;;;2.47;;
23142;SDS011;11740;51.168;4.112;2022-07-23T02:09:46;5.25;;;2.58;;
23142;SDS011;11740;51.168;4.112;2022-07-23T02:12:14;4.63;;;2.40;;
23142;SDS011;11740;51.168;4.112;2022-07-23T02:14:41;3.10;;;2.72;;
23142;SDS011;11740;51.168;4.112;2022-07-23T02:17:09;5.90;;;2.45;;
23142;SDS011;11740;51.168;4.112;2022-07-23T02:19:36;4.53;;;2.40;;
23142;SDS011;11740;51.168;4.112;2022-07-23T02:22:03;3.67;;;2.60;;
23142;SDS011;11740;51.168;4.112;2022-07-23T02:24:30;3.70;;;2.70;;
23142;SDS011;11740;51.168;4.112;2022-07-23T02:26:57;4.35;;;3.03;;
23142;SDS011;11740;51.168;4.112;2022-07-23T02:29:24;5.18;;;2.67;;
23142;SDS011;11740;51.168;4.112;2022-07-23T02:31:51;4.18;;;2.63;;
23142;SDS011;11740;51.168;4.112;2022-07-23T02:34:19;2.88;;;2.20;;
23142;SDS011;11740;51.168;4.112;2022-07-23T02:36:46;2.50;;;2.28;;
23142;SDS011;11740;51.168;4.112;2022-07-23T02:39:13;3.65;;;2.22;;
23142;SDS011;11740;51.168;4.112;2022-07-23T02:41:41;3.92;;;2.45;;
23142;SDS011;11740;51.168;4.112;2022-07-23T02:44:08;2.85;;;2.40;;
23142;SDS011;11740;51.168;4.112;2022-07-23T02:46:35;2.78;;;2.15;;
23142;SDS011;11740;51.168;4.112;2022-07-23T02:49:02;3.72;;;2.65;;
23142;SDS011;11740;51.168;4.112;2022-07-23T02:51:32;3.53;;;3.00;;
23142;SDS011;11740;51.168;4.112;2022-07-23T02:53:59;4.13;;;3.00;;
23142;SDS011;11740;51.168;4.112;2022-07-23T02:56:26;3.08;;;2.78;;
23142;SDS011;11740;51.168;4.112;2022-07-23T02:58:53;3.47;;;3.00;;
23142;SDS011;11740;51.168;4.112;2022-07-23T03:01:21;3.30;;;3.00;;
23142;SDS011;11740;51.168;4.112;2022-07-23T03:03:48;4.10;;;3.10;;
23142;SDS011;11740;51.168;4.112;2022-07-23T03:06:15;3.70;;;2.60;;
23142;SDS011;11740;51.168;4.112;2022-07-23T03:08:43;5.25;;;3.10;;
23142;SDS011;11740;51.168;4.112;2022-07-23T03:11:10;4.70;;;3.25;;
23142;SDS011;11740;51.168;4.112;2022-07-23T03:13:37;5.78;;;3.38;;
23142;SDS011;11740;51.168;4.112;2022-07-23T03:16:05;5.03;;;3.70;;
23142;SDS011;11740;51.168;4.112;2022-07-23T03:18:33;4.53;;;3.40;;
23142;SDS011;11740;51.168;4.112;2022-07-23T03:21:06;4.30;;;2.78;;
23142;SDS011;11740;51.168;4.112;2022-07-23T03:23:33;3.45;;;2.58;;
23142;SDS011;11740;51.168;4.112;2022-07-23T03:26:00;4.20;;;2.67;;
23142;SDS011;11740;51.168;4.112;2022-07-23T03:28:27;3.53;;;2.40;;
23142;SDS011;11740;51.168;4.112;2022-07-23T03:30:54;3.20;;;2.55;;
23142;SDS011;11740;51.168;4.112;2022-07-23T03:33:22;4.03;;;2.38;;
23142;SDS011;11740;51.168;4.112;2022-07-23T03:35:49;4.85;;;3.40;;
23142;SDS011;11740;51.168;4.112;2022-07-23T03:38:16;4.97;;;3.05;;
23142;SDS011;11740;51.168;4.112;2022-07-23T03:40:44;5.00;;;3.30;;
23142;SDS011;11740;51.168;4.112;2022-07-23T03:43:11;6.53;;;4.00;;
23142;SDS011;11740;51.168;4.112;2022-07-23T03:45:39;3.85;;;3.55;;
23142;SDS011;11740;51.168;4.112;2022-07-23T03:48:06;3.28;;;2.97;;
23142;SDS011;11740;51.168;4.112;2022-07-23T03:50:33;3.47;;;2.60;;
23142;SDS011;11740;51.168;4.112;2022-07-23T03:53:00;3.28;;;2.60;;
23142;SDS011;11740;51.168;4.112;2022-07-23T03:55:28;2.78;;;2.58;;
23142;SDS011;11740;51.168;4.112;2022-07-23T03:57:55;3.30;;;2.63;;
23142;SDS011;11740;51.168;4.112;2022-07-23T04:00:22;3.88;;;3.28;;
23142;SDS011;11740;51.168;4.112;2022-07-23T04:02:49;4.22;;;3.47;;
23142;SDS011;11740;51.168;4.112;2022-07-23T04:05:16;4.45;;;3.97;;
23142;SDS011;11740;51.168;4.112;2022-07-23T04:07:44;6.25;;;4.32;;
23142;SDS011;11740;51.168;4.112;2022-07-23T04:10:10;6.07;;;4.45;;
23142;SDS011;11740;51.168;4.112;2022-07-23T04:12:37;4.75;;;4.03;;
23142;SDS011;11740;51.168;4.112;2022-07-23T04:15:06;4.95;;;3.50;;
23142;SDS011;11740;51.168;4.112;2022-07-23T04:17:34;5.32;;;3.65;;
23142;SDS011;11740;51.168;4.112;2022-07-23T04:20:02;6.85;;;3.05;;
23142;SDS011;11740;51.168;4.112;2022-07-23T04:22:30;4.70;;;3.10;;
23142;SDS011;11740;51.168;4.112;2022-07-23T04:24:57;2.67;;;2.10;;
23142;SDS011;11740;51.168;4.112;2022-07-23T04:27:24;4.00;;;2.20;;
23142;SDS011;11740;51.168;4.112;2022-07-23T04:29:51;4.75;;;2.78;;
23142;SDS011;11740;51.168;4.112;2022-07-23T04:32:19;3.88;;;2.10;;
23142;SDS011;11740;51.168;4.112;2022-07-23T04:34:46;3.72;;;2.95;;
23142;SDS011;11740;51.168;4.112;2022-07-23T04:37:13;5.00;;;3.00;;
23142;SDS011;11740;51.168;4.112;2022-07-23T04:39:40;5.55;;;3.50;;
23142;SDS011;11740;51.168;4.112;2022-07-23T04:42:07;3.80;;;3.38;;
23142;SDS011;11740;51.168;4.112;2022-07-23T04:44:34;5.25;;;3.58;;
23142;SDS011;11740;51.168;4.112;2022-07-23T04:47:01;6.38;;;3.38;;
23142;SDS011;11740;51.168;4.112;2022-07-23T04:49:28;6.75;;;4.13;;
23142;SDS011;11740;51.168;4.112;2022-07-23T04:51:55;6.47;;;3.90;;
23142;SDS011;11740;51.168;4.112;2022-07-23T04:54:22;4.28;;;3.75;;
23142;SDS011;11740;51.168;4.112;2022-07-23T04:56:49;9.07;;;5.03;;
23142;SDS011;11740;51.168;4.112;2022-07-23T04:59:16;9.05;;;5.90;;
23142;SDS011;11740;51.168;4.112;2022-07-23T05:01:51;7.88;;;5.55;;
23142;SDS011;11740;51.168;4.112;2022-07-23T05:04:18;9.35;;;5.65;;
23142;SDS011;11740;51.168;4.112;2022-07-23T05:06:46;6.97;;;5.35;;
23142;SDS011;11740;51.168;4.112;2022-07-23T05:09:13;8.73;;;5.03;;
23142;SDS011;11740;51.168;4.112;2022-07-23T05:11:41;7.40;;;5.75;;
23142;SDS011;11740;51.168;4.112;2022-07-23T05:14:08;8.75;;;6.07;;
23142;SDS011;11740;51.168;4.112;2022-07-23T05:16:35;10.25;;;6.32;;
23142;SDS011;11740;51.168;4.112;2022-07-23T05:19:02;11.90;;;6.00;;
23142;SDS011;11740;51.168;4.112;2022-07-23T05:21:30;17.17;;;6.85;;
23142;SDS011;11740;51.168;4.112;2022-07-23T05:23:58;8.30;;;5.80;;
23142;SDS011;11740;51.168;4.112;2022-07-23T05:26:25;7.75;;;5.65;;
23142;SDS011;11740;51.168;4.112;2022-07-23T05:28:53;12.07;;;5.80;;
23142;SDS011;11740;51.168;4.112;2022-07-23T05:31:20;6.28;;;5.15;;
23142;SDS011;11740;51.168;4.112;2022-07-23T05:33:47;7.70;;;4.97;;
23142;SDS011;11740;51.168;4.112;2022-07-23T05:36:13;6.72;;;5.00;;
23142;SDS011;11740;51.168;4.112;2022-07-23T05:38:40;7.70;;;4.93;;
23142;SDS011;11740;51.168;4.112;2022-07-23T05:41:07;12.40;;;5.43;;
23142;SDS011;11740;51.168;4.112;2022-07-23T05:43:34;9.60;;;5.57;;
23142;SDS011;11740;51.168;4.112;2022-07-23T05:46:02;6.18;;;4.75;;
23142;SDS011;11740;51.168;4.112;2022-07-23T05:48:29;7.32;;;4.60;;
23142;SDS011;11740;51.168;4.112;2022-07-23T05:50:56;5.85;;;5.03;;
23142;SDS011;11740;51.168;4.112;2022-07-23T05:53:23;9.27;;;5.18;;
23142;SDS011;11740;51.168;4.112;2022-07-23T05:55:50;6.65;;;5.55;;
23142;SDS011;11740;51.168;4.112;2022-07-23T05:58:17;7.43;;;5.57;;
23142;SDS011;11740;51.168;4.112;2022-07-23T06:00:44;6.68;;;5.30;;
23142;SDS011;11740;51.168;4.112;2022-07-23T06:03:11;8.30;;;6.70;;
23142;SDS011;11740;51.168;4.112;2022-07-23T06:05:38;8.43;;;6.40;;
23142;SDS011;11740;51.168;4.112;2022-07-23T06:08:05;8.90;;;7.18;;
23142;SDS011;11740;51.168;4.112;2022-07-23T06:10:32;9.23;;;6.97;;
23142;SDS011;11740;51.168;4.112;2022-07-23T06:12:59;10.45;;;7.30;;
23142;SDS011;11740;51.168;4.112;2022-07-23T06:15:28;8.68;;;7.15;;
23142;SDS011;11740;51.168;4.112;2022-07-23T06:17:56;9.63;;;7.88;;
23142;SDS011;11740;51.168;4.112;2022-07-23T06:20:24;10.45;;;7.70;;
23142;SDS011;11740;51.168;4.112;2022-07-23T06:22:51;9.60;;;6.53;;
23142;SDS011;11740;51.168;4.112;2022-07-23T06:25:18;9.23;;;7.88;;
23142;SDS011;11740;51.168;4.112;2022-07-23T06:27:47;8.38;;;7.20;;
23142;SDS011;11740;51.168;4.112;2022-07-23T06:30:14;11.18;;;7.30;;
23142;SDS011;11740;51.168;4.112;2022-07-23T06:32:46;12.27;;;7.53;;
23142;SDS011;11740;51.168;4.112;2022-07-23T06:35:15;10.57;;;7.32;;
23142;SDS011;11740;51.168;4.112;2022-07-23T06:37:44;9.80;;;7.65;;
23142;SDS011;11740;51.168;4.112;2022-07-23T06:40:13;10.48;;;7.43;;
23142;SDS011;11740;51.168;4.112;2022-07-23T06:42:41;11.65;;;7.90;;
23142;SDS011;11740;51.168;4.112;2022-07-23T06:45:08;8.73;;;7.13;;
23142;SDS011;11740;51.168;4.112;2022-07-23T06:47:35;9.45;;;7.47;;
23142;SDS011;11740;51.168;4.112;2022-07-23T06:50:03;8.35;;;6.90;;
23142;SDS011;11740;51.168;4.112;2022-07-23T06:52:30;9.00;;;6.40;;
23142;SDS011;11740;51.168;4.112;2022-07-23T06:54:57;10.57;;;6.53;;
23142;SDS011;11740;51.168;4.112;2022-07-23T06:57:26;7.43;;;6.32;;
23142;SDS011;11740;51.168;4.112;2022-07-23T06:59:53;9.23;;;6.47;;
23142;SDS011;11740;51.168;4.112;2022-07-23T07:02:21;8.80;;;6.32;;
23142;SDS011;11740;51.168;4.112;2022-07-23T07:04:49;10.55;;;6.60;;
23142;SDS011;11740;51.168;4.112;2022-07-23T07:07:16;12.13;;;6.93;;
23142;SDS011;11740;51.168;4.112;2022-07-23T07:09:43;9.18;;;6.25;;
23142;SDS011;11740;51.168;4.112;2022-07-23T07:12:13;9.48;;;6.18;;
23142;SDS011;11740;51.168;4.112;2022-07-23T07:14:40;8.88;;;6.43;;
23142;SDS011;11740;51.168;4.112;2022-07-23T07:17:07;8.38;;;6.45;;
23142;SDS011;11740;51.168;4.112;2022-07-23T07:19:37;7.13;;;5.93;;
23142;SDS011;11740;51.168;4.112;2022-07-23T07:22:04;9.65;;;5.78;;
23142;SDS011;11740;51.168;4.112;2022-07-23T07:24:31;12.55;;;5.32;;
23142;SDS011;11740;51.168;4.112;2022-07-23T07:27:03;9.73;;;5.60;;
23142;SDS011;11740;51.168;4.112;2022-07-23T07:29:31;6.63;;;5.45;;
23142;SDS011;11740;51.168;4.112;2022-07-23T07:31:58;10.98;;;4.70;;
23142;SDS011;11740;51.168;4.112;2022-07-23T07:34:25;8.05;;;5.50;;
23142;SDS011;11740;51.168;4.112;2022-07-23T07:36:52;8.70;;;5.38;;
23142;SDS011;11740;51.168;4.112;2022-07-23T07:39:19;7.57;;;5.03;;
23142;SDS011;11740;51.168;4.112;2022-07-23T07:41:46;8.55;;;5.10;;
23142;SDS011;11740;51.168;4.112;2022-07-23T07:44:13;8.55;;;5.10;;
23142;SDS011;11740;51.168;4.112;2022-07-23T07:46:40;10.45;;;5.57;;
23142;SDS011;11740;51.168;4.112;2022-07-23T07:49:07;10.43;;;5.55;;
23142;SDS011;11740;51.168;4.112;2022-07-23T07:51:41;8.75;;;5.30;;
23142;SDS011;11740;51.168;4.112;2022-07-23T07:54:11;10.73;;;5.28;;
23142;SDS011;11740;51.168;4.112;2022-07-23T07:56:38;9.00;;;5.22;;
23142;SDS011;11740;51.168;4.112;2022-07-23T07:59:07;9.10;;;5.53;;
23142;SDS011;11740;51.168;4.112;2022-07-23T08:01:36;10.38;;;5.63;;
23142;SDS011;11740;51.168;4.112;2022-07-23T08:04:03;8.48;;;5.47;;
23142;SDS011;11740;51.168;4.112;2022-07-23T08:06:31;7.75;;;5.35;;
23142;SDS011;11740;51.168;4.112;2022-07-23T08:08:58;10.85;;;5.63;;
23142;SDS011;11740;51.168;4.112;2022-07-23T08:11:25;7.47;;;5.22;;
23142;SDS011;11740;51.168;4.112;2022-07-23T08:13:52;9.50;;;5.65;;
23142;SDS011;11740;51.168;4.112;2022-07-23T08:16:19;11.07;;;6.32;;
23142;SDS011;11740;51.168;4.112;2022-07-23T08:18:46;8.85;;;5.80;;
23142;SDS011;11740;51.168;4.112;2022-07-23T08:21:13;8.25;;;5.50;;
23142;SDS011;11740;51.168;4.112;2022-07-23T08:23:40;10.77;;;5.97;;
23142;SDS011;11740;51.168;4.112;2022-07-23T08:26:07;8.90;;;6.20;;
23142;SDS011;11740;51.168;4.112;2022-07-23T08:28:34;9.90;;;6.20;;
23142;SDS011;11740;51.168;4.112;2022-07-23T08:31:01;8.35;;;5.80;;
23142;SDS011;11740;51.168;4.112;2022-07-23T08:33:29;12.73;;;6.10;;
23142;SDS011;11740;51.168;4.112;2022-07-23T08:36:00;9.38;;;5.75;;
23142;SDS011;11740;51.168;4.112;2022-07-23T08:38:30;7.53;;;5.68;;
23142;SDS011;11740;51.168;4.112;2022-07-23T08:40:59;9.98;;;6.00;;
23142;SDS011;11740;51.168;4.112;2022-07-23T08:43:27;9.88;;;5.97;;
23142;SDS011;11740;51.168;4.112;2022-07-23T08:45:59;10.15;;;6.18;;
23142;SDS011;11740;51.168;4.112;2022-07-23T08:48:28;7.15;;;5.38;;
23142;SDS011;11740;51.168;4.112;2022-07-23T08:50:59;6.90;;;5.72;;
23142;SDS011;11740;51.168;4.112;2022-07-23T08:53:30;6.57;;;5.63;;
23142;SDS011;11740;51.168;4.112;2022-07-23T08:56:01;14.68;;;5.88;;
23142;SDS011;11740;51.168;4.112;2022-07-23T08:58:30;8.52;;;5.50;;
23142;SDS011;11740;51.168;4.112;2022-07-23T09:00:57;7.13;;;5.20;;
23142;SDS011;11740;51.168;4.112;2022-07-23T09:03:30;7.80;;;4.93;;
23142;SDS011;11740;51.168;4.112;2022-07-23T09:06:01;10.85;;;5.65;;
23142;SDS011;11740;51.168;4.112;2022-07-23T09:11:03;7.28;;;4.95;;
23142;SDS011;11740;51.168;4.112;2022-07-23T09:13:48;10.38;;;5.32;;
23142;SDS011;11740;51.168;4.112;2022-07-23T09:18:59;7.18;;;4.60;;
23142;SDS011;11740;51.168;4.112;2022-07-23T09:21:33;7.72;;;4.97;;
23142;SDS011;11740;51.168;4.112;2022-07-23T09:24:12;6.10;;;4.75;;
23142;SDS011;11740;51.168;4.112;2022-07-23T09:26:47;8.95;;;5.30;;
23142;SDS011;11740;51.168;4.112;2022-07-23T09:31:53;8.60;;;4.75;;
23142;SDS011;11740;51.168;4.112;2022-07-23T09:36:56;8.18;;;5.57;;
23142;SDS011;11740;51.168;4.112;2022-07-23T09:39:35;9.65;;;5.20;;
23142;SDS011;11740;51.168;4.112;2022-07-23T09:44:59;6.30;;;4.60;;
23142;SDS011;11740;51.168;4.112;2022-07-23T09:47:28;5.30;;;4.80;;
23142;SDS011;11740;51.168;4.112;2022-07-23T09:52:48;7.95;;;4.50;;
23142;SDS011;11740;51.168;4.112;2022-07-23T09:55:16;8.00;;;4.63;;
23142;SDS011;11740;51.168;4.112;2022-07-23T09:57:45;5.82;;;4.68;;
23142;SDS011;11740;51.168;4.112;2022-07-23T10:00:16;6.20;;;4.60;;
23142;SDS011;11740;51.168;4.112;2022-07-23T10:02:44;5.78;;;4.18;;
23142;SDS011;11740;51.168;4.112;2022-07-23T10:05:13;5.22;;;4.20;;
23142;SDS011;11740;51.168;4.112;2022-07-23T10:07:41;6.05;;;3.90;;
23142;SDS011;11740;51.168;4.112;2022-07-23T10:10:09;5.90;;;4.00;;
23142;SDS011;11740;51.168;4.112;2022-07-23T10:12:37;5.70;;;4.05;;
23142;SDS011;11740;51.168;4.112;2022-07-23T10:15:17;7.57;;;4.00;;
23142;SDS011;11740;51.168;4.112;2022-07-23T10:17:44;5.68;;;3.67;;
23142;SDS011;11740;51.168;4.112;2022-07-23T10:20:12;5.60;;;3.80;;
23142;SDS011;11740;51.168;4.112;2022-07-23T10:23:42;4.38;;;3.42;;
23142;SDS011;11740;51.168;4.112;2022-07-23T10:25:57;6.18;;;3.70;;
23142;SDS011;11740;51.168;4.112;2022-07-23T10:28:52;4.30;;;3.40;;
23142;SDS011;11740;51.168;4.112;2022-07-23T10:34:47;5.68;;;3.50;;
23142;SDS011;11740;51.168;4.112;2022-07-23T10:37:28;4.30;;;3.50;;
23142;SDS011;11740;51.168;4.112;2022-07-23T10:40:16;5.63;;;3.80;;
23142;SDS011;11740;51.168;4.112;2022-07-23T10:42:46;5.65;;;3.90;;
23142;SDS011;11740;51.168;4.112;2022-07-23T10:50:43;6.55;;;3.63;;
23142;SDS011;11740;51.168;4.112;2022-07-23T10:54:04;5.07;;;3.58;;
23142;SDS011;11740;51.168;4.112;2022-07-23T10:59:32;8.45;;;3.78;;
23142;SDS011;11740;51.168;4.112;2022-07-23T11:02:39;4.43;;;3.00;;
23142;SDS011;11740;51.168;4.112;2022-07-23T11:05:09;3.95;;;3.17;;
23142;SDS011;11740;51.168;4.112;2022-07-23T11:10:35;3.92;;;2.90;;
23142;SDS011;11740;51.168;4.112;2022-07-23T11:23:59;2.58;;;1.73;;
23142;SDS011;11740;51.168;4.112;2022-07-23T11:31:55;2.60;;;1.98;;
23142;SDS011;11740;51.168;4.112;2022-07-23T11:37:05;4.35;;;2.40;;
23142;SDS011;11740;51.168;4.112;2022-07-23T11:39:34;3.58;;;1.80;;
23142;SDS011;11740;51.168;4.112;2022-07-23T11:42:03;1.90;;;1.70;;
23142;SDS011;11740;51.168;4.112;2022-07-23T11:44:33;2.10;;;1.73;;
23142;SDS011;11740;51.168;4.112;2022-07-23T11:47:05;3.30;;;2.00;;
23142;SDS011;11740;51.168;4.112;2022-07-23T11:49:35;2.95;;;1.98;;
23142;SDS011;11740;51.168;4.112;2022-07-23T11:52:07;3.00;;;1.88;;
23142;SDS011;11740;51.168;4.112;2022-07-23T11:57:25;1.80;;;1.33;;
23142;SDS011;11740;51.168;4.112;2022-07-23T12:00:01;1.67;;;1.52;;
23142;SDS011;11740;51.168;4.112;2022-07-23T12:02:41;7.30;;;1.83;;
23142;SDS011;11740;51.168;4.112;2022-07-23T12:05:24;2.13;;;1.70;;
23142;SDS011;11740;51.168;4.112;2022-07-23T12:08:04;2.28;;;1.70;;
23142;SDS011;11740;51.168;4.112;2022-07-23T12:10:37;4.28;;;1.63;;
23142;SDS011;11740;51.168;4.112;2022-07-23T12:13:11;4.18;;;1.60;;
23142;SDS011;11740;51.168;4.112;2022-07-23T12:15:42;2.95;;;1.45;;
23142;SDS011;11740;51.168;4.112;2022-07-23T12:18:16;2.25;;;1.30;;
23142;SDS011;11740;51.168;4.112;2022-07-23T12:23:19;3.60;;;1.80;;
23142;SDS011;11740;51.168;4.112;2022-07-23T12:25:49;2.40;;;1.70;;
23142;SDS011;11740;51.168;4.112;2022-07-23T12:30:54;1.92;;;1.30;;
23142;SDS011;11740;51.168;4.112;2022-07-23T12:36:07;2.97;;;1.90;;
23142;SDS011;11740;51.168;4.112;2022-07-23T12:38:37;6.22;;;1.63;;
23142;SDS011;11740;51.168;4.112;2022-07-23T12:43:38;2.53;;;1.40;;
23142;SDS011;11740;51.168;4.112;2022-07-23T12:48:55;4.95;;;2.00;;
23142;SDS011;11740;51.168;4.112;2022-07-23T12:51:23;2.97;;;1.58;;
23142;SDS011;11740;51.168;4.112;2022-07-23T12:54:05;3.45;;;1.40;;
23142;SDS011;11740;51.168;4.112;2022-07-23T12:56:39;2.53;;;1.67;;
23142;SDS011;11740;51.168;4.112;2022-07-23T12:59:30;2.20;;;1.40;;
23142;SDS011;11740;51.168;4.112;2022-07-23T13:01:58;4.35;;;1.35;;
23142;SDS011;11740;51.168;4.112;2022-07-23T13:04:25;2.75;;;1.83;;
23142;SDS011;11740;51.168;4.112;2022-07-23T13:06:55;2.42;;;1.80;;
23142;SDS011;11740;51.168;4.112;2022-07-23T13:09:31;5.13;;;2.00;;
23142;SDS011;11740;51.168;4.112;2022-07-23T13:12:07;4.03;;;1.90;;
23142;SDS011;11740;51.168;4.112;2022-07-23T13:14:37;2.67;;;2.05;;
23142;SDS011;11740;51.168;4.112;2022-07-23T13:17:05;4.75;;;2.00;;
23142;SDS011;11740;51.168;4.112;2022-07-23T13:19:32;3.17;;;1.60;;
23142;SDS011;11740;51.168;4.112;2022-07-23T13:22:00;4.20;;;1.52;;
23142;SDS011;11740;51.168;4.112;2022-07-23T13:24:34;3.75;;;2.10;;
23142;SDS011;11740;51.168;4.112;2022-07-23T13:27:04;4.15;;;1.92;;
23142;SDS011;11740;51.168;4.112;2022-07-23T13:29:33;3.17;;;1.95;;
23142;SDS011;11740;51.168;4.112;2022-07-23T13:32:02;6.13;;;1.98;;
23142;SDS011;11740;51.168;4.112;2022-07-23T13:34:38;2.28;;;1.90;;
23142;SDS011;11740;51.168;4.112;2022-07-23T13:37:07;2.22;;;1.92;;
23142;SDS011;11740;51.168;4.112;2022-07-23T13:39:34;2.55;;;1.65;;
23142;SDS011;11740;51.168;4.112;2022-07-23T13:42:04;3.05;;;1.88;;
23142;SDS011;11740;51.168;4.112;2022-07-23T13:44:33;7.00;;;2.42;;
23142;SDS011;11740;51.168;4.112;2022-07-23T13:47:04;3.85;;;2.17;;
23142;SDS011;11740;51.168;4.112;2022-07-23T13:49:31;2.20;;;2.00;;
23142;SDS011;11740;51.168;4.112;2022-07-23T13:52:01;3.63;;;2.10;;
23142;SDS011;11740;51.168;4.112;2022-07-23T13:54:33;5.65;;;2.15;;
23142;SDS011;11740;51.168;4.112;2022-07-23T13:57:00;2.30;;;1.98;;
23142;SDS011;11740;51.168;4.112;2022-07-23T13:59:27;2.42;;;1.80;;
23142;SDS011;11740;51.168;4.112;2022-07-23T14:01:55;3.95;;;2.05;;
23142;SDS011;11740;51.168;4.112;2022-07-23T14:04:42;4.43;;;2.20;;
23142;SDS011;11740;51.168;4.112;2022-07-23T14:07:09;4.05;;;2.42;;
23142;SDS011;11740;51.168;4.112;2022-07-23T14:09:37;3.05;;;2.10;;
23142;SDS011;11740;51.168;4.112;2022-07-23T14:12:04;2.00;;;1.77;;
23142;SDS011;11740;51.168;4.112;2022-07-23T14:14:32;3.80;;;2.10;;
23142;SDS011;11740;51.168;4.112;2022-07-23T14:17:02;2.95;;;1.85;;
23142;SDS011;11740;51.168;4.112;2022-07-23T14:19:30;2.60;;;1.90;;
23142;SDS011;11740;51.168;4.112;2022-07-23T14:21:58;2.65;;;2.15;;
23142;SDS011;11740;51.168;4.112;2022-07-23T14:24:25;3.08;;;1.88;;
23142;SDS011;11740;51.168;4.112;2022-07-23T14:26:59;3.35;;;1.90;;
23142;SDS011;11740;51.168;4.112;2022-07-23T14:29:28;4.85;;;2.10;;
23142;SDS011;11740;51.168;4.112;2022-07-23T14:31:55;2.60;;;1.88;;
23142;SDS011;11740;51.168;4.112;2022-07-23T14:34:23;2.35;;;1.90;;
23142;SDS011;11740;51.168;4.112;2022-07-23T14:36:53;4.40;;;2.10;;
23142;SDS011;11740;51.168;4.112;2022-07-23T14:39:20;2.42;;;1.80;;
23142;SDS011;11740;51.168;4.112;2022-07-23T14:41:47;2.50;;;2.00;;
23142;SDS011;11740;51.168;4.112;2022-07-23T14:44:14;4.70;;;2.25;;
23142;SDS011;11740;51.168;4.112;2022-07-23T14:46:41;2.25;;;1.90;;
23142;SDS011;11740;51.168;4.112;2022-07-23T14:49:09;3.55;;;2.28;;
23142;SDS011;11740;51.168;4.112;2022-07-23T14:51:36;2.20;;;1.85;;
23142;SDS011;11740;51.168;4.112;2022-07-23T14:54:04;2.75;;;2.15;;
23142;SDS011;11740;51.168;4.112;2022-07-23T14:56:31;3.38;;;2.28;;
23142;SDS011;11740;51.168;4.112;2022-07-23T14:59:00;2.50;;;2.08;;
23142;SDS011;11740;51.168;4.112;2022-07-23T15:01:30;3.38;;;2.00;;
23142;SDS011;11740;51.168;4.112;2022-07-23T15:04:00;2.97;;;2.30;;
23142;SDS011;11740;51.168;4.112;2022-07-23T15:06:47;2.42;;;2.03;;
23142;SDS011;11740;51.168;4.112;2022-07-23T15:09:14;3.88;;;2.22;;
23142;SDS011;11740;51.168;4.112;2022-07-23T15:11:42;2.95;;;2.17;;
23142;SDS011;11740;51.168;4.112;2022-07-23T15:14:09;3.28;;;2.08;;
23142;SDS011;11740;51.168;4.112;2022-07-23T15:16:43;3.55;;;2.05;;
23142;SDS011;11740;51.168;4.112;2022-07-23T15:19:10;4.00;;;2.00;;
23142;SDS011;11740;51.168;4.112;2022-07-23T15:21:40;2.15;;;1.80;;
23142;SDS011;11740;51.168;4.112;2022-07-23T15:24:14;2.22;;;1.73;;
23142;SDS011;11740;51.168;4.112;2022-07-23T15:26:41;3.33;;;2.17;;
23142;SDS011;11740;51.168;4.112;2022-07-23T15:29:08;4.15;;;2.08;;
23142;SDS011;11740;51.168;4.112;2022-07-23T15:31:35;3.15;;;2.15;;
23142;SDS011;11740;51.168;4.112;2022-07-23T15:34:02;3.50;;;2.00;;
23142;SDS011;11740;51.168;4.112;2022-07-23T15:36:32;3.38;;;2.08;;
23142;SDS011;11740;51.168;4.112;2022-07-23T15:39:01;2.28;;;1.92;;
23142;SDS011;11740;51.168;4.112;2022-07-23T15:41:29;2.28;;;2.00;;
23142;SDS011;11740;51.168;4.112;2022-07-23T15:43:56;2.85;;;2.10;;
23142;SDS011;11740;51.168;4.112;2022-07-23T15:46:24;2.70;;;1.92;;
23142;SDS011;11740;51.168;4.112;2022-07-23T15:48:52;2.47;;;2.10;;
23142;SDS011;11740;51.168;4.112;2022-07-23T15:51:20;3.47;;;2.22;;
23142;SDS011;11740;51.168;4.112;2022-07-23T15:53:48;3.00;;;1.90;;
23142;SDS011;11740;51.168;4.112;2022-07-23T15:56:15;2.08;;;1.85;;
23142;SDS011;11740;51.168;4.112;2022-07-23T15:58:42;3.72;;;2.20;;
23142;SDS011;11740;51.168;4.112;2022-07-23T16:01:10;2.45;;;2.20;;
23142;SDS011;11740;51.168;4.112;2022-07-23T16:03:39;3.45;;;2.20;;